Time;durP1;ratioP1;P1;durP2;ratioP2;P2;SDS_P1;SDS_P2;PMS_P1;PMS_P2;Temp;Humidity;BMP_temperature;BMP_pressure;BME280_temperature;BME280_humidity;BME280_pressure;Samples;Min_cycle;Max_cycle;Signal;HPM_P1;HPM_P2
2022/10/26 00:01:15;;;;;;;;;;;16.30;66.00;;;12.03;100.00;95624.69;5002179;28;19908;-49
2022/10/26 00:03:44;;;;;;;;;;;16.20;66.00;;;12.02;100.00;95637.22;5007354;28;19968;-50
2022/10/26 00:06:17;;;;;;;;;;;16.20;66.10;;;12.03;100.00;95668.22;5007849;28;19952;-50
2022/10/26 00:08:49;;;;;;;;;;;16.20;66.10;;;11.93;100.00;95684.25;5011243;28;19940;-49
2022/10/26 00:11:17;;;;;;;;;;;16.20;66.10;;;11.91;100.00;95689.06;5008032;28;19913;-49
2022/10/26 00:13:54;;;;;;;;;;;16.20;66.10;;;11.90;100.00;95713.34;4991974;28;20337;-49
2022/10/26 00:16:26;;;;;;;;;;;16.20;66.20;;;11.89;100.00;95685.06;4993073;28;19909;-49
2022/10/26 00:18:55;;;;;;;;;;;16.20;66.20;;;11.88;100.00;95641.56;4992279;28;20394;-49
2022/10/26 00:21:21;;;;;;;;;;;16.10;66.20;;;11.93;100.00;95638.06;5012535;28;19909;-50
2022/10/26 00:23:49;;;;;;;;;;;16.20;66.30;;;11.92;100.00;95609.78;4990933;28;19909;-51
2022/10/26 00:26:15;;;;;;;;;;;16.10;66.30;;;11.87;100.00;95607.91;4993115;28;19953;-49
2022/10/26 00:28:47;;;;;;;;;;;16.10;66.30;;;11.87;100.00;95602.56;4992540;28;20411;-49
2022/10/26 00:31:16;;;;;;;;;;;16.10;66.30;;;11.85;100.00;95595.94;5002361;28;19909;-49
2022/10/26 00:33:45;;;;;;;;;;;16.00;66.30;;;11.82;100.00;95581.22;5026738;28;19952;-52
2022/10/26 00:36:26;;;;;;;;;;;16.00;66.30;;;11.76;100.00;95577.78;4993059;28;19999;-52
2022/10/26 00:38:57;;;;;;;;;;;16.00;66.40;;;11.68;100.00;95580.97;5008663;28;19924;-49
2022/10/26 00:41:33;;;;;;;;;;;15.90;66.40;;;11.62;100.00;95581.28;4975156;28;20273;-51
2022/10/26 00:44:45;;;;;;;;;;;15.90;66.40;;;11.48;100.00;95584.50;4989599;28;19928;-49
2022/10/26 00:47:35;;;;;;;;;;;15.80;66.40;;;11.42;100.00;95588.25;4991029;28;19952;-50
2022/10/26 00:50:30;;;;;;;;;;;15.70;66.50;;;11.38;100.00;95581.06;4993106;28;20454;-49
2022/10/26 00:52:59;;;;;;;;;;;15.70;66.60;;;11.29;100.00;95586.94;4996714;28;19913;-52
2022/10/26 00:55:33;;;;;;;;;;;15.60;66.60;;;11.27;100.00;95581.06;5005324;28;20477;-52
2022/10/26 00:58:08;;;;;;;;;;;15.60;66.60;;;11.20;100.00;95574.41;5011583;28;20334;-50
2022/10/26 01:00:41;;;;;;;;;;;15.50;66.50;;;11.09;100.00;95571.78;4993266;28;19963;-49
2022/10/26 01:03:10;;;;;;;;;;;15.40;66.50;;;10.99;100.00;95569.09;4993251;28;20004;-54
2022/10/26 01:05:43;;;;;;;;;;;15.30;66.40;;;10.91;100.00;95569.63;5002667;28;19917;-51
2022/10/26 01:08:09;;;;;;;;;;;15.30;66.50;;;10.83;100.00;95573.63;5003212;28;19909;-50
2022/10/26 01:10:40;;;;;;;;;;;15.20;66.50;;;10.75;100.00;95574.16;4991808;28;20341;-50
2022/10/26 01:13:07;;;;;;;;;;;15.10;66.60;;;10.67;100.00;95582.66;5004151;28;19914;-50
2022/10/26 01:16:15;;;;;;;;;;;15.00;66.60;;;10.58;100.00;95578.91;5006914;28;19945;-55
2022/10/26 01:19:25;;;;;;;;;;;14.90;66.70;;;10.50;100.00;95585.59;4996629;28;19932;-49
2022/10/26 01:22:21;;;;;;;;;;;14.90;66.70;;;10.42;100.00;95594.06;5010370;28;19909;-51
2022/10/26 01:25:24;;;;;;;;;;;14.80;66.90;;;10.31;100.00;95598.59;5023462;28;19917;-51
2022/10/26 01:27:53;;;;;;;;;;;14.70;67.00;;;10.27;100.00;95602.81;5011695;28;19913;-49
2022/10/26 01:30:31;;;;;;;;;;;14.70;67.10;;;10.24;100.00;95597.19;4973228;28;19916;-49
2022/10/26 01:33:33;;;;;;;;;;;14.60;67.10;;;10.19;100.00;95587.34;5005828;28;19964;-52
2022/10/26 01:36:39;;;;;;;;;;;14.60;67.20;;;10.20;100.00;95613.69;4998290;28;20012;-54
2022/10/26 01:39:33;;;;;;;;;;;14.60;67.20;;;10.20;100.00;95620.88;5011366;28;19933;-49
2022/10/26 01:42:04;;;;;;;;;;;14.60;67.30;;;10.21;100.00;95609.16;5008606;28;20012;-51
2022/10/26 01:44:44;;;;;;;;;;;14.60;67.50;;;10.24;100.00;95623.81;5014092;28;20019;-49
2022/10/26 01:47:16;;;;;;;;;;;14.60;67.60;;;10.26;100.00;95616.38;4997202;28;20000;-49
2022/10/26 01:49:49;;;;;;;;;;;14.60;67.70;;;10.31;100.00;95653.66;4994416;28;19909;-49
2022/10/26 01:52:22;;;;;;;;;;;14.60;67.70;;;10.29;100.00;95789.72;4973762;28;19924;-49
2022/10/26 01:54:48;;;;;;;;;;;14.70;67.90;;;10.45;100.00;95817.25;4989545;28;19909;-50
2022/10/26 01:57:32;;;;;;;;;;;14.70;68.70;;;10.61;100.00;95791.50;4996871;28;19917;-52
2022/10/26 02:00:18;;;;;;;;;;;14.70;68.80;;;10.74;100.00;95787.56;5005558;28;20490;-51
2022/10/26 02:03:00;;;;;;;;;;;14.80;69.00;;;10.81;100.00;95804.91;4993470;28;19920;-52
2022/10/26 02:05:49;;;;;;;;;;;14.80;69.10;;;10.88;100.00;95786.03;4996671;28;19918;-50
2022/10/26 02:09:14;;;;;;;;;;;14.90;69.30;;;10.96;100.00;95771.38;5009335;28;19958;-50
2022/10/26 02:11:50;;;;;;;;;;;14.90;69.30;;;11.03;100.00;95766.59;5003031;28;19913;-53
2022/10/26 02:14:48;;;;;;;;;;;15.00;69.40;;;11.11;100.00;95750.09;4991316;28;19917;-51
2022/10/26 02:17:50;;;;;;;;;;;15.00;69.30;;;11.14;100.00;95736.25;5005871;28;20012;-52
2022/10/26 02:20:33;;;;;;;;;;;15.10;69.30;;;11.22;100.00;95710.91;5002033;28;19917;-50
2022/10/26 02:23:05;;;;;;;;;;;15.20;69.30;;;11.25;100.00;95691.72;4997286;28;19915;-54
2022/10/26 02:25:39;;;;;;;;;;;15.20;69.30;;;11.28;100.00;95691.19;4992320;28;19952;-51
2022/10/26 02:28:16;;;;;;;;;;;15.30;70.10;;;11.31;100.00;95707.47;5005699;28;19924;-53
2022/10/26 02:31:05;;;;;;;;;;;15.30;69.30;;;11.38;100.00;95714.41;4985825;28;19956;-50
2022/10/26 02:33:44;;;;;;;;;;;15.30;69.30;;;11.42;100.00;95739.47;5005558;28;19909;-50
2022/10/26 02:36:18;;;;;;;;;;;15.40;69.30;;;11.40;100.00;95757.59;5015363;28;19910;-51
2022/10/26 02:38:52;;;;;;;;;;;15.50;69.30;;;11.43;100.00;95752.53;5006067;28;19937;-50
2022/10/26 02:41:26;;;;;;;;;;;15.50;69.20;;;11.44;100.00;95766.66;5001430;28;20311;-53
2022/10/26 02:44:30;;;;;;;;;;;15.50;69.20;;;11.48;100.00;95779.22;4998368;28;19960;-53
2022/10/26 02:47:00;;;;;;;;;;;15.60;69.20;;;11.48;100.00;95792.56;4989693;28;19960;-51
2022/10/26 02:49:29;;;;;;;;;;;15.60;69.10;;;11.44;100.00;95788.00;4990289;28;19913;-50
2022/10/26 02:52:41;;;;;;;;;;;15.60;69.10;;;11.48;100.00;95789.09;5006184;28;19917;-52
2022/10/26 02:55:40;;;;;;;;;;;15.60;69.10;;;11.50;100.00;95802.97;4999666;28;19955;-49
2022/10/26 02:58:29;;;;;;;;;;;15.60;69.10;;;11.44;100.00;95828.03;4982113;28;19927;-50
2022/10/26 03:00:57;;;;;;;;;;;15.60;69.20;;;11.46;100.00;95816.03;4999743;28;20298;-52
2022/10/26 03:03:24;;;;;;;;;;;15.60;69.20;;;11.49;100.00;95820.03;5032347;23;19976;-49
2022/10/26 03:05:52;;;;;;;;;;;15.60;69.30;;;11.53;100.00;95818.44;4993543;28;19932;-49
2022/10/26 03:08:27;;;;;;;;;;;15.60;69.30;;;11.56;100.00;95826.75;5008708;28;19916;-49
2022/10/26 03:10:56;;;;;;;;;;;15.70;69.50;;;11.55;100.00;95822.44;4994249;28;19917;-49
2022/10/26 03:13:25;;;;;;;;;;;15.70;69.40;;;11.59;100.00;95836.06;5004818;28;19909;-49
2022/10/26 03:15:56;;;;;;;;;;;15.70;69.30;;;11.55;100.00;95819.78;4993910;28;19916;-49
2022/10/26 03:18:25;;;;;;;;;;;15.70;69.30;;;11.53;100.00;95816.59;4996890;28;19909;-49
2022/10/26 03:20:50;;;;;;;;;;;15.70;69.20;;;11.51;100.00;95824.06;5012305;28;19990;-55
2022/10/26 03:23:22;;;;;;;;;;;15.70;69.30;;;11.47;100.00;95824.81;4998234;28;20391;-54
2022/10/26 03:26:06;;;;;;;;;;;15.70;69.20;;;11.51;100.00;95826.72;4980899;28;19914;-54
2022/10/26 03:28:35;;;;;;;;;;;15.70;69.30;;;11.51;100.00;95818.72;4976626;28;20005;-55
2022/10/26 03:31:07;;;;;;;;;;;15.70;69.40;;;11.53;100.00;95818.44;4968097;28;19913;-55
2022/10/26 03:33:35;;;;;;;;;;;15.70;69.50;;;11.61;100.00;95833.94;4993590;28;19916;-51
2022/10/26 03:36:01;;;;;;;;;;;15.70;69.60;;;11.60;100.00;95827.00;4992341;28;19964;-52
2022/10/26 03:38:35;;;;;;;;;;;15.70;69.60;;;11.63;100.00;95825.69;5005098;28;19996;-52
2022/10/26 03:41:07;;;;;;;;;;;15.70;69.60;;;11.59;100.00;95809.38;4976245;28;19975;-50
2022/10/26 03:43:36;;;;;;;;;;;15.70;69.60;;;11.61;100.00;95812.59;4995679;28;19931;-54
2022/10/26 03:46:05;;;;;;;;;;;15.70;69.70;;;11.65;100.00;95786.19;4993540;28;20292;-51
2022/10/26 03:48:36;;;;;;;;;;;15.80;69.80;;;11.61;100.00;95769.09;4996885;28;19958;-53
2022/10/26 03:51:05;;;;;;;;;;;15.80;69.80;;;11.63;100.00;95756.31;5011847;28;20302;-55
2022/10/26 03:53:31;;;;;;;;;;;15.80;69.80;;;11.66;100.00;95759.25;5011319;28;19923;-55
2022/10/26 03:55:56;;;;;;;;;;;15.80;69.80;;;11.65;100.00;95775.50;5007487;28;19909;-54
2022/10/26 03:58:28;;;;;;;;;;;15.80;69.80;;;11.63;100.00;95791.00;4993387;28;19916;-54
2022/10/26 04:00:57;;;;;;;;;;;15.80;70.60;;;11.64;100.00;95798.72;5000387;28;20003;-54
2022/10/26 04:03:22;;;;;;;;;;;15.80;69.80;;;11.66;100.00;95793.09;5012245;28;19959;-54
2022/10/26 04:05:54;;;;;;;;;;;15.80;69.80;;;11.62;100.00;95768.03;4978761;28;20279;-54
2022/10/26 04:08:26;;;;;;;;;;;15.70;69.80;;;11.61;100.00;95767.22;5001022;28;20012;-50
2022/10/26 04:10:51;;;;;;;;;;;15.70;69.80;;;11.65;100.00;95772.84;4975808;28;19913;-55
2022/10/26 04:13:17;;;;;;;;;;;15.70;69.90;;;11.65;100.00;95778.16;5006458;28;19909;-54
2022/10/26 04:15:43;;;;;;;;;;;15.80;70.00;;;11.69;100.00;95781.91;4995053;28;20260;-53
2022/10/26 04:18:11;;;;;;;;;;;15.70;70.00;;;11.68;100.00;95772.31;5011055;28;19917;-53
2022/10/26 04:20:41;;;;;;;;;;;15.80;70.00;;;11.65;100.00;95776.31;4994574;28;20008;-53
2022/10/26 04:23:29;;;;;;;;;;;15.80;69.90;;;11.65;100.00;95783.50;4992516;28;19909;-51
2022/10/26 04:25:57;;;;;;;;;;;15.80;69.90;;;11.63;100.00;95780.31;5003304;28;19968;-54
2022/10/26 04:28:23;;;;;;;;;;;15.80;70.00;;;11.65;100.00;95783.50;4991321;28;19916;-51
2022/10/26 04:30:55;;;;;;;;;;;15.80;70.00;;;11.69;100.00;95779.22;4998852;28;19932;-54
2022/10/26 04:33:23;;;;;;;;;;;15.80;70.00;;;11.68;100.00;95781.09;4977634;28;19916;-52
2022/10/26 04:35:49;;;;;;;;;;;15.80;70.00;;;11.72;100.00;95781.38;4992820;28;19916;-50
2022/10/26 04:38:15;;;;;;;;;;;15.80;69.90;;;11.74;100.00;95784.59;4979101;28;20426;-51
2022/10/26 04:40:44;;;;;;;;;;;15.90;70.00;;;11.75;100.00;95802.19;5010325;28;20431;-51
2022/10/26 04:43:09;;;;;;;;;;;15.90;70.00;;;11.76;100.00;95807.28;4979357;28;20126;-52
2022/10/26 04:45:37;;;;;;;;;;;15.90;69.90;;;11.74;100.00;95833.41;4991320;28;19914;-49
2022/10/26 04:48:06;;;;;;;;;;;15.90;70.00;;;11.71;100.00;95833.94;4992217;28;19916;-54
2022/10/26 04:50:37;;;;;;;;;;;15.90;70.10;;;11.78;100.00;95841.69;5010769;28;19962;-52
2022/10/26 04:53:08;;;;;;;;;;;15.90;70.20;;;11.79;100.00;95849.44;4977647;28;20405;-54
2022/10/26 04:55:37;;;;;;;;;;;15.90;70.20;;;11.77;100.00;95848.91;5010567;28;20290;-53
2022/10/26 04:58:03;;;;;;;;;;;15.90;70.20;;;11.81;100.00;95844.66;4990906;28;20375;-56
2022/10/26 05:00:31;;;;;;;;;;;15.90;70.30;;;11.83;100.00;95833.69;4978457;28;19951;-53
2022/10/26 05:03:06;;;;;;;;;;;16.00;70.40;;;11.87;100.00;95828.66;4993969;28;20012;-54
2022/10/26 05:05:36;;;;;;;;;;;16.00;70.30;;;11.88;100.00;95825.72;5010153;28;19917;-54
2022/10/26 05:08:03;;;;;;;;;;;16.00;70.30;;;11.89;100.00;95821.97;4999353;28;20367;-52
2022/10/26 05:10:32;;;;;;;;;;;16.00;70.30;;;11.87;100.00;95791.28;4994957;28;20299;-50
2022/10/26 05:12:59;;;;;;;;;;;16.00;70.20;;;11.82;100.00;95781.38;4998258;28;19909;-54
2022/10/26 05:15:27;;;;;;;;;;;16.00;70.10;;;11.79;100.00;95766.72;4993628;28;20003;-53
2022/10/26 05:18:02;;;;;;;;;;;16.00;70.10;;;11.77;100.00;95752.03;4993761;28;19959;-50
2022/10/26 05:20:31;;;;;;;;;;;16.00;70.10;;;11.79;100.00;95761.38;4991618;28;19959;-53
2022/10/26 05:23:00;;;;;;;;;;;16.00;70.10;;;11.84;100.00;95771.22;4991112;28;19909;-49
2022/10/26 05:25:36;;;;;;;;;;;16.00;70.30;;;11.89;100.00;95751.78;4963388;28;19948;-51
2022/10/26 05:28:06;;;;;;;;;;;16.00;70.40;;;11.93;100.00;95748.31;4974145;28;19925;-56
2022/10/26 05:30:33;;;;;;;;;;;16.00;70.40;;;11.99;100.00;95754.44;4977257;28;20035;-52
2022/10/26 05:33:03;;;;;;;;;;;16.10;70.50;;;12.02;100.00;95753.91;4979131;28;20283;-51
2022/10/26 05:35:31;;;;;;;;;;;16.10;70.50;;;12.06;100.00;95760.28;4958293;28;19913;-52
2022/10/26 05:38:11;;;;;;;;;;;16.10;70.40;;;12.01;100.00;95766.47;4990130;28;20277;-53
2022/10/26 05:40:37;;;;;;;;;;;16.10;70.40;;;12.11;100.00;95770.97;4974541;28;19910;-55
2022/10/26 05:43:03;;;;;;;;;;;16.20;70.40;;;12.13;100.00;95776.06;4998635;28;20326;-53
2022/10/26 05:45:29;;;;;;;;;;;16.20;70.30;;;12.11;100.00;95786.22;4993230;28;19966;-52
2022/10/26 05:47:58;;;;;;;;;;;16.20;70.30;;;12.11;100.00;95779.00;4993479;28;19913;-54
2022/10/26 05:50:23;;;;;;;;;;;16.20;70.20;;;12.09;100.00;95794.47;5000215;28;20241;-53
2022/10/26 05:52:49;;;;;;;;;;;16.20;70.10;;;12.07;100.00;95787.81;4989999;28;19959;-50
2022/10/26 05:55:18;;;;;;;;;;;16.20;70.10;;;12.00;100.00;95780.06;4996670;28;20015;-49
2022/10/26 05:57:45;;;;;;;;;;;16.10;69.90;;;11.91;100.00;95781.66;5004789;28;19909;-50
2022/10/26 06:00:24;;;;;;;;;;;16.10;69.80;;;11.84;100.00;95778.44;4992055;28;19917;-50
2022/10/26 06:03:33;;;;;;;;;;;16.10;69.80;;;11.78;100.00;95789.13;5003130;28;20426;-54
2022/10/26 06:05:59;;;;;;;;;;;16.10;69.80;;;11.78;100.00;95823.84;4994651;28;19924;-52
2022/10/26 06:08:27;;;;;;;;;;;16.00;69.80;;;11.79;100.00;95838.75;4958981;28;20299;-53
2022/10/26 06:10:58;;;;;;;;;;;16.00;70.00;;;11.78;100.00;95834.50;4993348;28;19909;-51
2022/10/26 06:13:27;;;;;;;;;;;16.10;70.10;;;11.81;100.00;95819.81;4992166;28;19909;-49
2022/10/26 06:16:26;;;;;;;;;;;16.00;70.10;;;11.79;100.00;95832.63;5005631;28;19951;-49
2022/10/26 06:19:14;;;;;;;;;;;16.00;70.00;;;11.81;100.00;95839.31;5008990;28;19909;-55
2022/10/26 06:21:58;;;;;;;;;;;16.00;70.10;;;11.84;100.00;95843.28;4966987;28;19971;-53
2022/10/26 06:24:54;;;;;;;;;;;16.00;70.10;;;11.85;100.00;95838.81;5008799;28;20291;-53
2022/10/26 06:28:06;;;;;;;;;;;16.10;70.10;;;11.80;100.00;95842.22;5010199;28;19917;-54
2022/10/26 06:30:35;;;;;;;;;;;16.00;70.10;;;11.80;100.00;95843.03;4992976;28;19916;-54
2022/10/26 06:33:14;;;;;;;;;;;16.00;70.10;;;11.82;100.00;95848.13;4993175;28;19955;-50
2022/10/26 06:35:48;;;;;;;;;;;16.00;70.20;;;11.81;100.00;95830.47;4973312;28;19924;-51
2022/10/26 06:38:19;;;;;;;;;;;16.00;70.20;;;11.80;100.00;95816.34;5002809;28;19913;-53
2022/10/26 06:40:56;;;;;;;;;;;16.00;70.20;;;11.84;100.00;95855.84;4974131;28;20793;-51
2022/10/26 06:43:30;;;;;;;;;;;16.10;70.30;;;11.89;100.00;95875.38;4983615;28;19928;-50
2022/10/26 06:46:40;;;;;;;;;;;16.10;70.40;;;12.00;100.00;95868.16;4972378;28;19925;-54
2022/10/26 06:49:38;;;;;;;;;;;16.10;71.30;;;12.01;100.00;95851.88;4992586;28;19925;-50
2022/10/26 06:52:29;;;;;;;;;;;16.10;70.50;;;12.06;100.00;95860.97;5012721;28;20043;-50
2022/10/26 06:55:15;;;;;;;;;;;16.20;70.50;;;12.07;100.00;95865.25;5012668;28;19913;-52
2022/10/26 06:57:48;;;;;;;;;;;16.20;70.50;;;12.09;100.00;95860.44;4990335;28;19955;-49
2022/10/26 07:00:27;;;;;;;;;;;16.30;70.50;;;12.12;100.00;95867.91;4971090;28;20393;-51
2022/10/26 07:02:57;;;;;;;;;;;16.30;70.50;;;12.15;100.00;95868.16;5001871;28;19920;-51
2022/10/26 07:05:23;;;;;;;;;;;16.40;70.50;;;12.19;100.00;95874.59;4998904;28;19917;-54
2022/10/26 07:07:58;;;;;;;;;;;16.40;70.40;;;12.19;100.00;95873.78;4987364;28;19931;-49
2022/10/26 07:10:26;;;;;;;;;;;16.50;70.40;;;12.21;100.00;95866.31;4976713;28;19917;-52
2022/10/26 07:12:55;;;;;;;;;;;16.50;70.30;;;12.23;100.00;95861.50;4995228;28;19910;-50
2022/10/26 07:15:27;;;;;;;;;;;16.50;70.20;;;12.26;100.00;95866.31;4994016;28;20288;-50
2022/10/26 07:17:59;;;;;;;;;;;16.60;70.30;;;12.28;100.00;95869.50;4994137;28;19932;-50
2022/10/26 07:20:36;;;;;;;;;;;16.60;70.20;;;12.32;100.00;95883.16;4993903;28;20290;-51
2022/10/26 07:23:05;;;;;;;;;;;16.60;70.20;;;12.33;100.00;95882.06;4993317;28;19962;-49
2022/10/26 07:25:37;;;;;;;;;;;16.70;70.20;;;12.40;100.00;95885.25;5004474;28;19945;-49
2022/10/26 07:28:27;;;;;;;;;;;16.80;70.10;;;12.48;100.00;95895.41;5013278;28;19913;-50
2022/10/26 07:30:57;;;;;;;;;;;16.90;70.10;;;12.53;100.00;95895.38;5012680;28;19915;-51
2022/10/26 07:33:23;;;;;;;;;;;17.00;70.20;;;12.58;100.00;95900.75;4977006;28;19953;-49
2022/10/26 07:36:00;;;;;;;;;;;17.00;70.10;;;12.60;100.00;95906.63;4993397;28;20372;-49
2022/10/26 07:38:29;;;;;;;;;;;17.10;70.10;;;12.69;100.00;95913.03;5004180;28;19913;-50
2022/10/26 07:40:55;;;;;;;;;;;17.20;70.10;;;12.77;100.00;95916.22;4992142;28;19914;-50
2022/10/26 07:43:21;;;;;;;;;;;17.30;70.00;;;12.83;100.00;95934.66;4978069;28;19909;-49
2022/10/26 07:45:50;;;;;;;;;;;17.30;70.00;;;12.87;100.00;95953.63;4993242;28;19987;-54
2022/10/26 07:48:16;;;;;;;;;;;17.40;69.90;;;12.92;100.00;95956.31;4977270;28;20358;-54
2022/10/26 07:50:50;;;;;;;;;;;17.40;69.90;;;12.94;100.00;95949.63;4995105;28;19908;-54
2022/10/26 07:53:19;;;;;;;;;;;17.40;69.90;;;12.99;100.00;95942.66;5012195;28;20319;-52
2022/10/26 07:55:53;;;;;;;;;;;17.50;69.80;;;12.96;100.00;95934.09;5010929;28;20442;-52
2022/10/26 07:58:28;;;;;;;;;;;17.60;69.80;;;13.00;100.00;95937.00;4979379;28;20339;-51
2022/10/26 08:00:55;;;;;;;;;;;17.70;69.70;;;13.03;100.00;95944.50;5007089;28;19909;-52
2022/10/26 08:03:27;;;;;;;;;;;17.70;69.70;;;13.12;100.00;95942.88;4992459;28;20400;-55
2022/10/26 08:05:56;;;;;;;;;;;17.70;69.60;;;13.20;100.00;95950.34;4998474;28;19913;-54
2022/10/26 08:08:22;;;;;;;;;;;17.80;69.70;;;13.27;100.00;95947.41;4988115;28;20368;-55
2022/10/26 08:10:48;;;;;;;;;;;17.90;69.60;;;13.37;100.00;95952.72;4975648;28;19960;-55
2022/10/26 08:13:14;;;;;;;;;;;18.00;69.50;;;13.43;100.00;95959.66;4999354;28;19916;-54
2022/10/26 08:15:40;;;;;;;;;;;18.20;69.50;;;13.51;100.00;95971.69;4994854;28;19924;-53
2022/10/26 08:18:06;;;;;;;;;;;18.30;69.40;;;13.56;100.00;95982.38;5010495;28;19913;-54
2022/10/26 08:20:32;;;;;;;;;;;18.40;69.30;;;13.60;100.00;95975.41;4994714;28;20279;-52
2022/10/26 08:23:05;;;;;;;;;;;18.40;69.10;;;13.70;100.00;95976.44;5011831;28;19909;-52
2022/10/26 08:25:34;;;;;;;;;;;18.50;69.00;;;13.85;100.00;95976.34;4988115;28;19914;-53
2022/10/26 08:28:04;;;;;;;;;;;18.60;69.00;;;13.93;100.00;95973.09;4974998;28;19947;-50
2022/10/26 08:30:32;;;;;;;;;;;18.80;69.00;;;13.98;100.00;95975.78;4977547;28;19913;-51
2022/10/26 08:33:06;;;;;;;;;;;18.80;68.90;;;14.09;100.00;95963.91;5005999;28;19909;-51
2022/10/26 08:35:37;;;;;;;;;;;18.90;68.80;;;14.16;100.00;95976.19;5005817;28;20376;-53
2022/10/26 08:38:06;;;;;;;;;;;19.10;68.80;;;14.21;100.00;95976.16;4995800;28;19940;-51
2022/10/26 08:40:38;;;;;;;;;;;19.20;68.60;;;14.38;100.00;95983.81;4998317;28;19945;-50
2022/10/26 08:43:42;;;;;;;;;;;19.30;68.40;;;14.58;100.00;95976.47;4998943;28;19909;-50
2022/10/26 08:46:16;;;;;;;;;;;19.70;68.40;;;14.65;100.00;95986.06;4975500;28;19945;-51
2022/10/26 08:49:00;;;;;;;;;;;19.90;68.20;;;14.74;100.00;95984.41;4998990;28;20367;-52
2022/10/26 08:51:36;;;;;;;;;;;20.00;68.10;;;14.85;100.00;95985.88;4994458;28;19920;-53
2022/10/26 08:54:18;;;;;;;;;;;20.00;68.10;;;14.92;100.00;95991.75;4994064;28;19909;-53
2022/10/26 08:56:54;;;;;;;;;;;20.00;67.90;;;15.23;100.00;95983.38;4976053;28;19963;-54
2022/10/26 08:59:42;;;;;;;;;;;20.40;67.80;;;15.41;99.38;95979.97;4992369;28;19916;-54
2022/10/26 09:02:17;;;;;;;;;;;20.60;67.70;;;15.73;99.09;95987.44;5001373;28;20384;-54
2022/10/26 09:04:44;;;;;;;;;;;21.00;67.60;;;16.01;96.70;95978.75;4990528;28;19917;-51
2022/10/26 09:07:27;;;;;;;;;;;21.40;67.40;;;16.39;95.67;95979.59;5007838;28;20353;-49
2022/10/26 09:10:22;;;;;;;;;;;21.90;67.20;;;16.76;92.36;95986.81;5010360;28;20423;-50
2022/10/26 09:13:34;;;;;;;;;;;22.30;66.80;;;17.20;86.77;95976.66;5005956;28;19916;-51
2022/10/26 09:16:26;;;;;;;;;;;22.90;66.40;;;17.70;84.86;95982.19;4990506;28;19959;-51
2022/10/26 09:19:45;;;;;;;;;;;23.50;65.90;;;18.29;82.23;95987.72;4958898;28;19909;-51
2022/10/26 09:22:29;;;;;;;;;;;24.10;65.50;;;18.90;78.37;95984.44;4965791;28;20372;-52
2022/10/26 09:24:59;;;;;;;;;;;24.90;65.00;;;19.30;75.04;95981.00;4980500;28;19913;-55
2022/10/26 09:28:03;;;;;;;;;;;25.40;64.50;;;19.76;74.78;95994.09;4994155;28;20016;-52
2022/10/26 09:30:30;;;;;;;;;;;25.70;63.90;;;20.00;72.21;95996.41;5009796;28;19921;-51
2022/10/26 09:33:22;;;;;;;;;;;26.00;63.30;;;20.17;70.96;96000.25;5005820;28;19912;-51
2022/10/26 09:36:02;;;;;;;;;;;26.20;62.60;;;20.13;71.74;96002.00;4985364;28;19913;-58
2022/10/26 09:38:42;;;;;;;;;;;26.40;61.30;;;20.35;69.60;96001.84;5007294;28;19924;-54
2022/10/26 09:41:42;;;;;;;;;;;26.60;60.70;;;20.67;70.38;96002.53;4993675;28;19908;-53
2022/10/26 09:44:32;;;;;;;;;;;26.90;60.40;;;20.75;66.42;96002.53;4990789;28;20003;-51
2022/10/26 09:47:33;;;;;;;;;;;27.20;59.80;;;20.91;66.72;96008.25;4978612;28;19917;-52
2022/10/26 09:50:32;;;;;;;;;;;27.40;59.10;;;21.24;66.42;96005.00;4983477;28;19913;-52
2022/10/26 09:52:57;;;;;;;;;;;27.50;58.90;;;21.37;65.01;96006.78;5010566;28;19932;-53
2022/10/26 09:55:27;;;;;;;;;;;27.80;58.80;;;21.62;63.05;96012.41;5007449;28;19920;-50
2022/10/26 09:58:02;;;;;;;;;;;28.00;58.70;;;21.86;62.91;96017.28;4958661;28;20012;-52
2022/10/26 10:00:34;;;;;;;;;;;28.30;58.50;;;21.96;62.52;96019.59;4976180;28;26966;-55
2022/10/26 10:02:59;;;;;;;;;;;28.60;58.40;;;22.08;58.98;96018.91;4961154;28;19921;-51
2022/10/26 10:05:34;;;;;;;;;;;28.90;58.00;;;22.23;58.09;96026.53;4990979;28;20296;-56
2022/10/26 10:08:21;;;;;;;;;;;29.10;57.50;;;22.24;58.21;96032.72;4967619;28;20003;-51
2022/10/26 10:11:07;;;;;;;;;;;29.30;57.20;;;22.56;59.89;96034.78;4957369;28;19913;-55
2022/10/26 10:13:38;;;;;;;;;;;29.50;56.70;;;22.82;60.23;96037.28;4984756;28;19955;-56
2022/10/26 10:16:22;;;;;;;;;;;29.80;56.60;;;23.12;57.03;96039.91;4996330;28;20268;-54
2022/10/26 10:19:00;;;;;;;;;;;30.10;56.30;;;23.36;54.45;96035.72;4990669;28;19909;-51
2022/10/26 10:21:43;;;;;;;;;;;30.40;56.00;;;23.56;55.76;96043.78;4988820;28;19948;-49
2022/10/26 10:24:35;;;;;;;;;;;30.60;55.50;;;23.78;54.35;96041.81;4980241;28;19909;-54
2022/10/26 10:27:19;;;;;;;;;;;30.80;55.40;;;24.00;52.78;96043.31;4996872;28;19920;-52
2022/10/26 10:29:57;;;;;;;;;;;31.00;55.20;;;23.83;55.78;96044.31;5010838;28;20342;-50
2022/10/26 10:32:30;;;;;;;;;;;31.10;54.30;;;23.88;55.88;96041.41;4987422;28;20366;-50
2022/10/26 10:35:00;;;;;;;;;;;31.30;53.80;;;24.09;54.35;96044.00;4996983;28;19988;-52
2022/10/26 10:37:45;;;;;;;;;;;31.40;53.50;;;24.37;51.46;96040.56;5013279;28;20294;-50
2022/10/26 10:40:21;;;;;;;;;;;31.60;53.20;;;24.39;51.54;96041.81;4997022;28;20448;-49
2022/10/26 10:43:01;;;;;;;;;;;31.70;52.70;;;24.37;50.72;96048.75;5011957;28;20299;-57
2022/10/26 10:45:33;;;;;;;;;;;31.90;52.40;;;24.47;51.54;96045.56;4978124;28;19967;-49
2022/10/26 10:48:19;;;;;;;;;;;32.00;51.80;;;24.54;50.44;96055.88;4994567;28;19913;-51
2022/10/26 10:51:11;;;;;;;;;;;32.10;51.70;;;24.50;49.42;96055.78;4977176;28;20363;-53
2022/10/26 10:53:49;;;;;;;;;;;32.20;50.80;;;24.61;51.00;96053.41;4977871;28;19909;-55
2022/10/26 10:56:46;;;;;;;;;;;32.30;50.70;;;24.97;49.13;96054.44;5000526;28;19950;-53
2022/10/26 10:59:50;;;;;;;;;;;32.40;50.50;;;24.92;49.46;96060.94;4984886;28;19909;-55
2022/10/26 11:03:13;;;;;;;;;;;32.60;50.40;;;24.74;47.78;96056.88;4991765;28;19913;-55
2022/10/26 11:06:24;;;;;;;;;;;32.80;50.10;;;24.84;49.27;96064.56;4999437;28;19956;-55
2022/10/26 11:09:14;;;;;;;;;;;32.90;49.80;;;24.88;49.29;96060.00;4979493;28;19917;-53
2022/10/26 11:12:36;;;;;;;;;;;33.00;49.70;;;24.70;50.75;96063.03;4960655;28;20015;-56
2022/10/26 11:15:20;;;;;;;;;;;33.10;49.30;;;25.08;49.31;96061.00;5003565;28;19913;-51
2022/10/26 11:17:52;;;;;;;;;;;33.30;49.20;;;25.32;47.88;96057.38;4994682;28;19913;-56
2022/10/26 11:20:23;;;;;;;;;;;33.40;49.00;;;25.49;47.98;96059.81;4996225;28;19940;-57
2022/10/26 11:22:52;;;;;;;;;;;33.60;48.60;;;25.56;49.43;96051.03;4981888;28;19916;-54
2022/10/26 11:25:28;;;;;;;;;;;33.70;48.50;;;25.44;47.57;96051.09;4998973;28;19921;-56
2022/10/26 11:28:13;;;;;;;;;;;34.00;48.30;;;25.52;46.80;96061.84;4994323;28;20396;-55
2022/10/26 11:31:02;;;;;;;;;;;34.10;47.80;;;25.27;47.87;96058.44;4978046;28;19976;-56
2022/10/26 11:33:47;;;;;;;;;;;34.20;47.00;;;25.48;44.99;96052.78;4987249;28;19943;-55
2022/10/26 11:36:24;;;;;;;;;;;34.30;46.90;;;25.51;44.90;96059.44;4995378;28;20439;-55
2022/10/26 11:39:27;;;;;;;;;;;34.30;46.40;;;25.50;46.00;96053.19;4994321;28;19959;-54
2022/10/26 11:42:28;;;;;;;;;;;34.30;45.60;;;24.97;46.05;96060.66;5000107;28;20013;-52
2022/10/26 11:45:56;;;;;;;;;;;34.20;44.70;;;25.32;47.27;96060.94;4978089;28;19924;-52
2022/10/26 11:48:44;;;;;;;;;;;34.00;44.60;;;25.38;46.62;96050.53;4975486;28;20398;-54
2022/10/26 11:51:41;;;;;;;;;;;34.10;44.40;;;25.06;46.48;96058.59;4992935;28;19956;-54
2022/10/26 11:54:53;;;;;;;;;;;34.10;43.70;;;25.34;45.48;96052.38;5009660;28;19920;-53
2022/10/26 11:57:28;;;;;;;;;;;34.00;43.70;;;25.19;47.06;96066.75;4938340;28;19992;-51
2022/10/26 12:00:03;;;;;;;;;;;34.00;43.30;;;25.59;48.64;96066.69;4989081;28;19921;-54